Abis Cuxhaven — PBYB — position and weather

sailwx.info

Track history (hours):
 
Tides and Currents Weather Stations Pressure Air Temp Water Temp Dewpoint Dewpoint Depression Visibility Wind Speed Wind Dir Waves Ship Positions

Abis Cuxhaven

Last reported at 2015-Jan-30 08:23 UTC. Time now 2015-Jan-30 21:40 UTC.
Position N 35°60' W 005°13'.

Length 114 m; draft 6.4 m.

Type: Cargo ship. MMSI: 246670000.

Date/timePositionNaut miles runAvg speedWind from/ knotsBaromVisibWave heightAir tempDewpointWater temp
2015-Jan-30 08:23N 35°60' W 005°13'1113.4
2015-Jan-30 07:33N 35°58' W 005°26'235 8.6
2015-Jan-29 04:05N 37°45' W 009°48'6 9.2
2015-Jan-29 03:26N 37°51' W 009°50'27 9.3
2015-Jan-29 00:30N 38°18' W 009°57'10 9.6
2015-Jan-28 23:30N 38°27' W 010°00'10 9.7
2015-Jan-28 22:26N 38°37' W 010°03'10 9.9
2015-Jan-28 21:26N 38°47' W 010°05'19 9.3
2015-Jan-28 19:21N 39°06' W 010°05'  
2015-Jan-25 01:23N 50°18' W 000°60'58 8.2
2015-Jan-24 18:21N 50°34' E 000°27'910.5
2015-Jan-24 17:31N 50°37' E 000°40'10 9.9
2015-Jan-24 16:32N 50°43' E 000°52'20 8.1
2015-Jan-24 14:05N 50°55' E 001°17'4 7.3
2015-Jan-24 13:32N 50°57' E 001°22'8 8.7
2015-Jan-24 12:33N 51°03' E 001°31'1110.7
2015-Jan-24 11:33N 51°11' E 001°43'1211.9
2015-Jan-24 10:34N 51°20' E 001°55'8 7.6
2015-Jan-24 09:34N 51°23' E 002°06'8 7.5
2015-Jan-24 08:33N 51°21' E 002°17'8 7.8
2015-Jan-24 07:30N 51°23' E 002°30'8 8.2
2015-Jan-24 06:33N 51°22' E 002°42'8 8.1
2015-Jan-24 05:33N 51°23' E 002°55'10 9.4
2015-Jan-24 04:32N 51°24' E 003°11'9 9.2
2015-Jan-24 03:33N 51°25' E 003°25'7 7.0
2015-Jan-24 02:34N 51°25' E 003°36'8 7.6
2015-Jan-24 01:33N 51°21' E 003°47'8 7.7
2015-Jan-24 00:33N 51°25' E 003°58'7 7.2
2015-Jan-23 23:33N 51°22' E 004°09'9 8.9
2015-Jan-23 22:33N 51°17' E 004°20'0 0.3
2015-Jan-23 21:33N 51°17' E 004°20'1 1.0
2015-Jan-23 20:32N 51°17' E 004°22'0 0.0
2015-Jan-23 19:33N 51°17' E 004°22'0 0.0
2015-Jan-23 18:33N 51°17' E 004°22'0 0.0
2015-Jan-23 17:33N 51°17' E 004°22'0 0.0
2015-Jan-23 16:32N 51°17' E 004°22'0 0.0
2015-Jan-23 15:26N 51°17' E 004°22'0 0.0
2015-Jan-23 14:30N 51°17' E 004°22'0 0.0
2015-Jan-23 13:33N 51°17' E 004°22'0 0.0
2015-Jan-23 12:29N 51°17' E 004°22'0 0.4
2015-Jan-23 11:33N 51°17' E 004°21'1 0.6
2015-Jan-23 10:34N 51°17' E 004°20'6 5.6
2015-Jan-23 09:33N 51°21' E 004°14'8 7.6
2015-Jan-23 08:33N 51°23' E 004°02'5 4.8
2015-Jan-23 07:33N 51°22' E 003°55'8 7.6
2015-Jan-23 06:33N 51°23' E 003°43'7 7.3
2015-Jan-23 05:33N 51°25' E 003°32'1111.3
2015-Jan-23 04:33N 51°23' E 003°14'1313.3
2015-Jan-23 03:33N 51°22' E 002°52'1211.5
2015-Jan-23 02:30N 51°22' E 002°33'1514.0
2015-Jan-23 01:28N 51°16' E 002°12'1313.7
2015-Jan-23 00:33N 51°09' E 001°55'1313.2
2015-Jan-22 23:33N 51°01' E 001°39'1211.9
2015-Jan-22 22:33N 50°52' E 001°27'1410.7
2015-Jan-22 21:17N 50°40' E 001°15'  
Track history (hours):
 
Tides and Currents Weather Stations Pressure Air Temp Water Temp Dewpoint Dewpoint Depression Visibility Wind Speed Wind Dir Waves Ship Positions

Abis Cuxhaven

Last reported at 2015-Jan-30 08:23 UTC. Time now 2015-Jan-30 21:40 UTC.
Position N 35°60' W 005°13'.

Length 114 m; draft 6.4 m.

Type: Cargo ship. MMSI: 246670000.

Date/timePositionNaut miles runAvg speedWind from/ knotsBaromVisibWave heightAir tempDewpointWater temp
2015-Jan-30 08:23N 35°60' W 005°13'1113.4
2015-Jan-30 07:33N 35°58' W 005°26'235 8.6
2015-Jan-29 04:05N 37°45' W 009°48'6 9.2
2015-Jan-29 03:26N 37°51' W 009°50'27 9.3
2015-Jan-29 00:30N 38°18' W 009°57'10 9.6
2015-Jan-28 23:30N 38°27' W 010°00'10 9.7
2015-Jan-28 22:26N 38°37' W 010°03'10 9.9
2015-Jan-28 21:26N 38°47' W 010°05'19 9.3
2015-Jan-28 19:21N 39°06' W 010°05'  
2015-Jan-25 01:23N 50°18' W 000°60'58 8.2
2015-Jan-24 18:21N 50°34' E 000°27'910.5
2015-Jan-24 17:31N 50°37' E 000°40'10 9.9
2015-Jan-24 16:32N 50°43' E 000°52'20 8.1
2015-Jan-24 14:05N 50°55' E 001°17'4 7.3
2015-Jan-24 13:32N 50°57' E 001°22'8 8.7
2015-Jan-24 12:33N 51°03' E 001°31'1110.7
2015-Jan-24 11:33N 51°11' E 001°43'1211.9
2015-Jan-24 10:34N 51°20' E 001°55'8 7.6
2015-Jan-24 09:34N 51°23' E 002°06'8 7.5
2015-Jan-24 08:33N 51°21' E 002°17'8 7.8
2015-Jan-24 07:30N 51°23' E 002°30'8 8.2
2015-Jan-24 06:33N 51°22' E 002°42'8 8.1
2015-Jan-24 05:33N 51°23' E 002°55'10 9.4
2015-Jan-24 04:32N 51°24' E 003°11'9 9.2
2015-Jan-24 03:33N 51°25' E 003°25'7 7.0
2015-Jan-24 02:34N 51°25' E 003°36'8 7.6
2015-Jan-24 01:33N 51°21' E 003°47'8 7.7
2015-Jan-24 00:33N 51°25' E 003°58'7 7.2
2015-Jan-23 23:33N 51°22' E 004°09'9 8.9
2015-Jan-23 22:33N 51°17' E 004°20'0 0.3
2015-Jan-23 21:33N 51°17' E 004°20'1 1.0
2015-Jan-23 20:32N 51°17' E 004°22'0 0.0
2015-Jan-23 19:33N 51°17' E 004°22'0 0.0
2015-Jan-23 18:33N 51°17' E 004°22'0 0.0
2015-Jan-23 17:33N 51°17' E 004°22'0 0.0
2015-Jan-23 16:32N 51°17' E 004°22'0 0.0
2015-Jan-23 15:26N 51°17' E 004°22'0 0.0
2015-Jan-23 14:30N 51°17' E 004°22'0 0.0
2015-Jan-23 13:33N 51°17' E 004°22'0 0.0
2015-Jan-23 12:29N 51°17' E 004°22'0 0.4
2015-Jan-23 11:33N 51°17' E 004°21'1 0.6
2015-Jan-23 10:34N 51°17' E 004°20'6 5.6
2015-Jan-23 09:33N 51°21' E 004°14'8 7.6
2015-Jan-23 08:33N 51°23' E 004°02'5 4.8
2015-Jan-23 07:33N 51°22' E 003°55'8 7.6
2015-Jan-23 06:33N 51°23' E 003°43'7 7.3
2015-Jan-23 05:33N 51°25' E 003°32'1111.3
2015-Jan-23 04:33N 51°23' E 003°14'1313.3
2015-Jan-23 03:33N 51°22' E 002°52'1211.5
2015-Jan-23 02:30N 51°22' E 002°33'1514.0
2015-Jan-23 01:28N 51°16' E 002°12'1313.7
2015-Jan-23 00:33N 51°09' E 001°55'1313.2
2015-Jan-22 23:33N 51°01' E 001°39'1211.9
2015-Jan-22 22:33N 50°52' E 001°27'1410.7
2015-Jan-22 21:17N 50°40' E 001°15'  

Dump ship's entire track history